Time;durP1;ratioP1;P1;durP2;ratioP2;P2;SDS_P1;SDS_P2;PMS_P1;PMS_P2;Temp;Humidity;BMP_temperature;BMP_pressure;BME280_temperature;BME280_humidity;BME280_pressure;Samples;Min_cycle;Max_cycle;Signal;HPM_P1;HPM_P2
2021/07/09 00:02:32;;;;;;;3.25;1.50;;;15.70;99.90;;;;;;5003700;28;20041;-79
2021/07/09 00:04:59;;;;;;;3.10;1.60;;;15.70;99.90;;;;;;5004616;23;20517;-77
2021/07/09 00:07:25;;;;;;;4.78;1.65;;;15.60;99.90;;;;;;4983327;28;20030;-77
2021/07/09 00:09:51;;;;;;;4.15;1.73;;;15.60;99.90;;;;;;4974226;28;20026;-77
2021/07/09 00:12:17;;;;;;;3.55;1.85;;;15.60;99.90;;;;;;4992894;28;20075;-78
2021/07/09 00:14:43;;;;;;;5.38;1.95;;;15.70;99.90;;;;;;4993683;28;20492;-78
2021/07/09 00:17:09;;;;;;;3.33;1.73;;;15.60;99.90;;;;;;4995869;28;20029;-78
2021/07/09 00:19:35;;;;;;;3.92;2.30;;;15.60;99.90;;;;;;4976698;28;20034;-77
2021/07/09 00:22:02;;;;;;;3.50;1.70;;;15.60;99.90;;;;;;4973602;28;20038;-78
2021/07/09 00:24:28;;;;;;;6.75;2.10;;;15.60;99.90;;;;;;4979230;28;20018;-78
2021/07/09 00:26:53;;;;;;;3.08;1.63;;;15.60;99.90;;;;;;4997421;28;20519;-77
2021/07/09 00:29:19;;;;;;;3.17;1.67;;;15.70;99.90;;;;;;4997202;28;20103;-79
2021/07/09 00:31:45;;;;;;;4.65;2.10;;;15.70;99.90;;;;;;4996792;28;20401;-78
2021/07/09 00:34:10;;;;;;;4.03;1.77;;;15.70;99.90;;;;;;4979945;28;20034;-79
2021/07/09 00:36:38;;;;;;;4.10;2.08;;;15.80;99.90;;;;;;4980457;28;20120;-78
2021/07/09 00:39:06;;;;;;;3.67;1.75;;;15.80;99.90;;;;;;4979624;28;20168;-78
2021/07/09 00:41:31;;;;;;;3.38;1.90;;;15.80;99.90;;;;;;4981388;28;20062;-78
2021/07/09 00:43:57;;;;;;;5.07;2.15;;;15.80;99.90;;;;;;4978309;28;20086;-78
2021/07/09 00:46:38;;;;;;;4.95;2.20;;;15.80;99.90;;;;;;4977748;28;20023;-78
2021/07/09 00:49:09;;;;;;;4.28;2.00;;;15.80;99.90;;;;;;4991951;28;20507;-76
2021/07/09 00:51:35;;;;;;;4.10;2.03;;;15.70;99.90;;;;;;4978082;28;20027;-79
2021/07/09 00:54:01;;;;;;;4.63;1.95;;;15.70;99.90;;;;;;4977943;28;20125;-79
2021/07/09 00:56:28;;;;;;;3.90;2.10;;;15.70;99.90;;;;;;4976196;28;20720;-79
2021/07/09 00:58:54;;;;;;;5.07;2.13;;;15.70;99.90;;;;;;4975229;28;20105;-78
2021/07/09 01:01:20;;;;;;;4.53;1.90;;;15.70;99.90;;;;;;4959937;28;20042;-77
2021/07/09 01:03:46;;;;;;;3.97;1.92;;;15.70;99.90;;;;;;4976114;28;20055;-78
2021/07/09 01:06:13;;;;;;;5.00;1.83;;;15.60;99.90;;;;;;4977049;28;20023;-79
2021/07/09 01:08:39;;;;;;;4.35;2.10;;;15.60;99.90;;;;;;4975012;28;20033;-79
2021/07/09 01:11:04;;;;;;;5.15;2.58;;;15.60;99.90;;;;;;4976514;28;20034;-78
2021/07/09 01:13:30;;;;;;;3.80;2.10;;;15.50;99.90;;;;;;4977326;28;20030;-78
2021/07/09 01:15:55;;;;;;;7.22;2.47;;;15.50;99.90;;;;;;4959942;28;20089;-78
2021/07/09 01:18:22;;;;;;;6.15;2.40;;;15.50;99.90;;;;;;4977026;28;20149;-78
2021/07/09 01:20:47;;;;;;;6.50;2.50;;;15.50;99.90;;;;;;4977427;28;20027;-77
2021/07/09 01:23:18;;;;;;;4.00;2.20;;;15.50;99.90;;;;;;4985922;28;20405;-78
2021/07/09 01:25:43;;;;;;;6.15;2.50;;;15.50;99.90;;;;;;4990575;28;20022;-77
2021/07/09 01:28:09;;;;;;;4.07;2.33;;;15.50;99.90;;;;;;4987646;28;20609;-79
2021/07/09 01:30:36;;;;;;;5.28;2.50;;;15.50;99.90;;;;;;4960949;28;20014;-77
2021/07/09 01:33:02;;;;;;;3.78;2.08;;;15.40;99.90;;;;;;4978263;28;20173;-79
2021/07/09 01:35:29;;;;;;;4.68;2.53;;;15.40;99.90;;;;;;4974887;28;20058;-74
2021/07/09 01:38:02;;;;;;;4.28;2.17;;;15.40;99.90;;;;;;4983222;28;20040;-78
2021/07/09 01:40:29;;;;;;;5.65;2.60;;;15.40;99.90;;;;;;4979792;28;20027;-78
2021/07/09 01:42:55;;;;;;;3.80;2.05;;;15.40;99.90;;;;;;4996203;28;20026;-78
2021/07/09 01:45:22;;;;;;;3.38;2.10;;;15.40;99.90;;;;;;4974718;28;20847;-78
2021/07/09 01:47:49;;;;;;;4.78;2.42;;;15.50;99.90;;;;;;4958342;28;20050;-78
2021/07/09 01:50:17;;;;;;;5.07;2.47;;;15.40;99.90;;;;;;4976884;28;20026;-78
2021/07/09 01:52:42;;;;;;;5.82;2.33;;;15.40;99.90;;;;;;4976921;28;20022;-77
2021/07/09 01:55:09;;;;;;;4.75;2.50;;;15.40;99.90;;;;;;4958894;28;20058;-76
2021/07/09 01:57:34;;;;;;;4.53;1.90;;;15.40;99.90;;;;;;4976123;28;20051;-79
2021/07/09 02:00:01;;;;;;;4.07;2.03;;;15.30;99.90;;;;;;4990874;28;20106;-78
2021/07/09 02:02:27;;;;;;;3.38;1.88;;;15.30;99.90;;;;;;4979665;28;20437;-78
2021/07/09 02:04:55;;;;;;;3.30;1.65;;;15.30;99.90;;;;;;4975103;28;20093;-79
2021/07/09 02:07:22;;;;;;;4.00;1.98;;;15.30;99.90;;;;;;4975894;28;20504;-79
2021/07/09 02:09:51;;;;;;;6.10;2.00;;;15.30;99.90;;;;;;4957436;28;20508;-78
2021/07/09 02:12:19;;;;;;;4.35;1.70;;;15.20;99.90;;;;;;4975628;28;20023;-78
2021/07/09 02:14:46;;;;;;;3.53;1.90;;;15.20;99.90;;;;;;4975244;28;20077;-77
2021/07/09 02:17:14;;;;;;;5.57;2.25;;;15.20;99.90;;;;;;4975573;28;20030;-78
2021/07/09 02:19:41;;;;;;;3.75;1.95;;;15.20;99.90;;;;;;4967570;28;20116;-79
2021/07/09 02:22:09;;;;;;;4.90;2.05;;;15.20;99.90;;;;;;4995790;28;20077;-78
2021/07/09 02:24:40;;;;;;;4.80;1.85;;;15.20;99.90;;;;;;4978277;28;20030;-78
2021/07/09 02:27:06;;;;;;;3.83;2.10;;;15.20;99.90;;;;;;4995498;28;20022;-78
2021/07/09 02:29:33;;;;;;;5.65;2.05;;;15.20;99.90;;;;;;4985944;28;20030;-78
2021/07/09 02:32:00;;;;;;;3.72;2.20;;;15.20;99.90;;;;;;4974515;28;20080;-78
2021/07/09 02:34:29;;;;;;;4.43;1.75;;;15.20;99.90;;;;;;4974780;28;20062;-79
2021/07/09 02:36:56;;;;;;;3.67;2.05;;;15.10;99.90;;;;;;4977807;28;20170;-78
2021/07/09 02:39:25;;;;;;;4.13;1.60;;;15.10;99.90;;;;;;4994247;28;20045;-78
2021/07/09 02:41:54;;;;;;;3.75;1.60;;;15.10;99.90;;;;;;5013501;28;20030;-78
2021/07/09 02:44:21;;;;;;;3.35;1.77;;;15.10;99.90;;;;;;4995400;28;20034;-78
2021/07/09 02:46:47;;;;;;;8.80;2.28;;;15.10;99.90;;;;;;4978145;28;20381;-78
2021/07/09 02:49:12;;;;;;;4.47;2.10;;;15.10;99.90;;;;;;4961322;28;20019;-79
2021/07/09 02:51:38;;;;;;;3.45;1.75;;;15.10;99.90;;;;;;4977296;28;20030;-79
2021/07/09 02:54:04;;;;;;;5.45;1.77;;;15.10;99.90;;;;;;4978566;28;20038;-79
2021/07/09 02:56:29;;;;;;;3.80;1.77;;;15.10;99.90;;;;;;4978678;28;20639;-79
2021/07/09 02:58:55;;;;;;;4.22;1.92;;;15.10;99.90;;;;;;4978296;28;20054;-79
2021/07/09 03:01:21;;;;;;;5.18;2.03;;;15.00;99.90;;;;;;4962007;28;20038;-78
2021/07/09 03:03:46;;;;;;;5.60;2.05;;;15.10;99.90;;;;;;4998241;28;20110;-79
2021/07/09 03:06:12;;;;;;;4.05;2.45;;;15.10;99.90;;;;;;4997348;28;20026;-79
2021/07/09 03:08:38;;;;;;;3.22;1.80;;;15.10;99.90;;;;;;4998953;28;20401;-78
2021/07/09 03:11:03;;;;;;;3.72;2.00;;;15.00;99.90;;;;;;4998524;28;20021;-79
2021/07/09 03:13:29;;;;;;;4.38;1.83;;;15.10;99.90;;;;;;4981154;28;20039;-78
2021/07/09 03:15:54;;;;;;;4.15;2.00;;;15.00;99.90;;;;;;4981065;28;20039;-78
2021/07/09 03:18:20;;;;;;;5.68;2.10;;;15.00;99.90;;;;;;4980895;28;20035;-77
2021/07/09 03:20:46;;;;;;;3.75;1.90;;;15.00;99.90;;;;;;4960818;28;20042;-78
2021/07/09 03:23:12;;;;;;;3.30;1.83;;;15.00;99.90;;;;;;4995311;28;20034;-78
2021/07/09 03:25:38;;;;;;;4.55;2.20;;;15.00;99.90;;;;;;5002202;28;20022;-78
2021/07/09 03:28:04;;;;;;;3.65;2.33;;;15.00;99.90;;;;;;4999468;28;20033;-78
2021/07/09 03:30:29;;;;;;;3.97;1.90;;;15.00;99.90;;;;;;4993569;28;20401;-77
2021/07/09 03:32:55;;;;;;;6.18;2.33;;;15.00;99.90;;;;;;4963282;28;20113;-78
2021/07/09 03:35:20;;;;;;;4.97;2.08;;;15.00;99.90;;;;;;4978992;28;20039;-78
2021/07/09 03:37:46;;;;;;;4.03;2.22;;;15.00;99.90;;;;;;4985650;28;20030;-78
2021/07/09 03:40:12;;;;;;;3.95;2.22;;;15.00;99.90;;;;;;4990221;28;20038;-78
2021/07/09 03:42:38;;;;;;;4.22;2.35;;;15.00;99.90;;;;;;4978491;28;20057;-78
2021/07/09 03:45:05;;;;;;;4.53;2.35;;;15.00;99.90;;;;;;4979144;28;20023;-78
2021/07/09 03:47:31;;;;;;;5.03;2.53;;;15.00;99.90;;;;;;4979476;28;20019;-78
2021/07/09 03:49:56;;;;;;;4.40;2.42;;;15.00;99.90;;;;;;4978811;28;20027;-79
2021/07/09 03:52:22;;;;;;;4.38;2.35;;;15.00;99.90;;;;;;4978525;28;20038;-78
2021/07/09 03:54:47;;;;;;;4.35;2.50;;;15.00;99.90;;;;;;4980037;28;20090;-78
2021/07/09 03:57:13;;;;;;;4.13;2.25;;;15.10;99.90;;;;;;4980267;28;20035;-78
2021/07/09 03:59:38;;;;;;;5.95;2.67;;;15.00;99.90;;;;;;4962317;28;20469;-78
2021/07/09 04:02:04;;;;;;;4.55;2.58;;;15.10;99.90;;;;;;4978136;28;20065;-78
2021/07/09 04:04:30;;;;;;;4.57;2.28;;;15.10;99.90;;;;;;4996786;28;20110;-78
2021/07/09 04:06:55;;;;;;;4.80;2.33;;;15.00;99.90;;;;;;5003471;28;20150;-78
2021/07/09 04:09:21;;;;;;;4.88;2.25;;;15.00;99.90;;;;;;5003048;28;20107;-79
2021/07/09 04:11:47;;;;;;;5.45;2.65;;;15.00;99.90;;;;;;4986107;28;20153;-79
2021/07/09 04:14:12;;;;;;;4.30;2.33;;;15.00;99.90;;;;;;4998999;28;20054;-78
2021/07/09 04:16:38;;;;;;;5.47;2.33;;;15.00;99.90;;;;;;5008756;28;20065;-78
2021/07/09 04:19:03;;;;;;;5.03;2.10;;;15.00;99.90;;;;;;5010050;28;20105;-79
2021/07/09 04:21:29;;;;;;;4.47;2.13;;;14.90;99.90;;;;;;5010593;28;20093;-78
2021/07/09 04:23:55;;;;;;;4.82;2.30;;;15.00;99.90;;;;;;4997541;28;20034;-78
2021/07/09 04:26:20;;;;;;;5.90;2.30;;;15.00;99.90;;;;;;4997474;28;20030;-78
2021/07/09 04:28:46;;;;;;;3.97;2.20;;;14.90;99.90;;;;;;4999961;28;20026;-78
2021/07/09 04:31:12;;;;;;;4.85;2.13;;;14.90;99.90;;;;;;4978331;28;20113;-77
2021/07/09 04:33:38;;;;;;;4.53;2.45;;;14.90;99.90;;;;;;5002790;28;20026;-78
2021/07/09 04:36:03;;;;;;;3.70;1.98;;;15.00;99.90;;;;;;5005228;28;20032;-78
2021/07/09 04:38:29;;;;;;;3.50;1.90;;;15.00;99.90;;;;;;5005086;28;20022;-78
2021/07/09 04:40:55;;;;;;;3.75;2.15;;;15.00;99.90;;;;;;5004184;28;20042;-78
2021/07/09 04:43:20;;;;;;;4.05;1.77;;;15.00;99.90;;;;;;4982013;28;20543;-78
2021/07/09 04:45:46;;;;;;;4.70;1.88;;;15.00;99.90;;;;;;4995120;28;20492;-78
2021/07/09 04:48:12;;;;;;;4.10;1.73;;;15.00;99.90;;;;;;4995626;28;20057;-79
2021/07/09 04:50:37;;;;;;;4.88;2.03;;;15.00;99.90;;;;;;4996698;28;20037;-78
2021/07/09 04:53:03;;;;;;;3.15;1.42;;;15.00;99.90;;;;;;4999824;28;20056;-78
2021/07/09 04:55:29;;;;;;;5.00;2.38;;;14.90;99.90;;;;;;5003674;28;20033;-78
2021/07/09 04:57:55;;;;;;;5.28;1.88;;;14.80;99.90;;;;;;5009351;28;20022;-79
2021/07/09 05:00:21;;;;;;;6.30;1.70;;;14.80;99.90;;;;;;4988025;28;20034;-78
2021/07/09 05:02:47;;;;;;;4.40;1.90;;;14.90;99.90;;;;;;4997647;28;20030;-78
2021/07/09 05:05:15;;;;;;;4.10;1.90;;;15.00;99.90;;;;;;4989906;28;20026;-78
2021/07/09 05:07:41;;;;;;;3.22;1.75;;;15.00;99.90;;;;;;5002311;28;20017;-79
2021/07/09 05:10:08;;;;;;;5.05;1.83;;;15.10;99.90;;;;;;4984931;28;20472;-78
2021/07/09 05:12:34;;;;;;;3.03;1.60;;;15.10;99.90;;;;;;5005110;28;20026;-78
2021/07/09 05:15:00;;;;;;;4.60;1.42;;;15.10;99.90;;;;;;5003409;28;20061;-75
2021/07/09 05:17:25;;;;;;;4.25;1.60;;;15.10;99.90;;;;;;4998723;28;20053;-78
2021/07/09 05:19:54;;;;;;;2.80;1.38;;;15.10;99.90;;;;;;4985354;28;20027;-79
2021/07/09 05:22:20;;;;;;;4.38;1.80;;;15.10;99.90;;;;;;5004908;28;20120;-78
2021/07/09 05:24:47;;;;;;;4.68;1.65;;;15.10;99.90;;;;;;5000652;28;20061;-76
2021/07/09 05:27:12;;;;;;;3.65;1.40;;;15.10;99.90;;;;;;5005514;28;20022;-77
2021/07/09 05:29:38;;;;;;;4.60;1.90;;;15.20;99.90;;;;;;4996157;28;20033;-77
2021/07/09 05:32:04;;;;;;;4.93;1.77;;;15.10;99.90;;;;;;5006188;28;20084;-79
2021/07/09 05:34:30;;;;;;;4.00;1.88;;;15.10;99.90;;;;;;5002335;28;20042;-78
2021/07/09 05:36:56;;;;;;;4.32;2.10;;;15.10;99.90;;;;;;5001982;28;20447;-79
2021/07/09 05:39:22;;;;;;;3.95;1.80;;;15.10;99.90;;;;;;4999712;28;20064;-79
2021/07/09 05:41:47;;;;;;;2.67;1.70;;;15.20;99.90;;;;;;5005802;28;20109;-78
2021/07/09 05:44:13;;;;;;;3.97;1.70;;;15.10;99.90;;;;;;4968489;28;20027;-79
2021/07/09 05:46:39;;;;;;;3.25;1.70;;;15.20;99.90;;;;;;4977697;28;20166;-78
2021/07/09 05:49:05;;;;;;;3.17;1.80;;;15.20;99.90;;;;;;4984873;28;20106;-78
2021/07/09 05:51:30;;;;;;;3.60;1.67;;;15.10;99.90;;;;;;4996050;28;20044;-78
2021/07/09 05:53:56;;;;;;;4.05;1.67;;;15.20;99.90;;;;;;4986933;28;20030;-78
2021/07/09 05:56:22;;;;;;;4.15;2.08;;;15.20;99.90;;;;;;4976081;28;20027;-79
2021/07/09 05:58:47;;;;;;;3.15;1.70;;;15.20;99.90;;;;;;4975671;28;20026;-78
2021/07/09 06:01:13;;;;;;;3.63;1.60;;;15.30;99.90;;;;;;4986580;28;20022;-78
2021/07/09 06:03:39;;;;;;;3.70;2.00;;;15.30;99.90;;;;;;4994866;28;20089;-77
2021/07/09 06:06:04;;;;;;;3.42;1.98;;;15.40;99.90;;;;;;5001498;28;20018;-77
2021/07/09 06:08:30;;;;;;;4.97;1.80;;;15.50;99.90;;;;;;5000204;28;20081;-79
2021/07/09 06:10:57;;;;;;;4.55;2.05;;;15.50;99.90;;;;;;4995139;28;20037;-79
2021/07/09 06:13:22;;;;;;;3.15;1.92;;;15.50;99.90;;;;;;4979466;28;20054;-78
2021/07/09 06:15:48;;;;;;;4.28;1.98;;;15.50;99.90;;;;;;4999752;28;20057;-78
2021/07/09 06:18:13;;;;;;;4.95;2.30;;;15.40;99.90;;;;;;4995854;28;20399;-77
2021/07/09 06:20:39;;;;;;;4.20;2.20;;;15.50;99.90;;;;;;4984415;28;20026;-79
2021/07/09 06:23:05;;;;;;;4.28;1.95;;;15.50;99.90;;;;;;4999498;28;20041;-79
2021/07/09 06:25:31;;;;;;;4.78;1.73;;;15.50;99.90;;;;;;5002294;28;20030;-79
2021/07/09 06:27:57;;;;;;;3.90;2.15;;;15.50;99.90;;;;;;5002684;28;20036;-79
2021/07/09 06:30:22;;;;;;;4.28;1.90;;;15.50;99.90;;;;;;4989539;28;20026;-78
2021/07/09 06:32:48;;;;;;;5.05;2.10;;;15.50;99.90;;;;;;4984360;28;20030;-79
2021/07/09 06:35:14;;;;;;;4.75;2.45;;;15.50;99.90;;;;;;5012238;28;20037;-81
2021/07/09 06:37:40;;;;;;;3.08;1.83;;;15.40;99.90;;;;;;4984416;28;20130;-80
2021/07/09 06:40:08;;;;;;;4.80;2.30;;;15.50;99.90;;;;;;5005579;28;20570;-81
2021/07/09 06:42:34;;;;;;;5.97;2.33;;;15.50;99.90;;;;;;4980659;28;20022;-82
2021/07/09 06:44:59;;;;;;;4.28;2.22;;;15.60;99.90;;;;;;4986785;28;20047;-81
2021/07/09 06:47:25;;;;;;;5.95;2.70;;;15.60;99.90;;;;;;4976019;28;20477;-82
2021/07/09 06:49:51;;;;;;;5.05;2.40;;;15.60;99.90;;;;;;4957961;28;20030;-81
2021/07/09 06:52:16;;;;;;;4.15;2.42;;;15.60;99.90;;;;;;4988561;28;20030;-82
2021/07/09 06:54:42;;;;;;;5.00;2.10;;;15.60;99.90;;;;;;4997869;28;20032;-83
2021/07/09 06:57:08;;;;;;;5.00;2.20;;;15.60;99.90;;;;;;5007217;28;20698;-82
2021/07/09 06:59:33;;;;;;;5.18;2.20;;;15.70;99.90;;;;;;4999214;28;20038;-82
2021/07/09 07:01:59;;;;;;;5.45;2.35;;;15.70;99.90;;;;;;4996452;28;20034;-82
2021/07/09 07:04:25;;;;;;;3.95;1.92;;;15.70;99.90;;;;;;4969202;28;20026;-82
2021/07/09 07:06:52;;;;;;;4.97;2.25;;;15.60;99.90;;;;;;4985596;28;20026;-84
2021/07/09 07:09:18;;;;;;;5.90;2.15;;;15.60;99.90;;;;;;5013461;28;20484;-82
2021/07/09 07:11:44;;;;;;;4.55;2.05;;;15.70;99.90;;;;;;4987043;28;20026;-82
2021/07/09 07:14:10;;;;;;;6.10;2.22;;;15.80;99.90;;;;;;4982621;28;20078;-84
2021/07/09 07:16:35;;;;;;;4.00;2.28;;;15.80;99.90;;;;;;4983670;28;20447;-83
2021/07/09 07:19:02;;;;;;;4.75;2.38;;;15.90;99.90;;;;;;4977032;28;20037;-82
2021/07/09 07:21:28;;;;;;;4.28;2.53;;;15.90;99.90;;;;;;4976196;28;20380;-84
2021/07/09 07:23:53;;;;;;;5.07;2.85;;;16.00;99.90;;;;;;4977681;28;20122;-82
2021/07/09 07:26:19;;;;;;;5.70;2.78;;;16.10;99.90;;;;;;4994886;28;20030;-82
2021/07/09 07:28:44;;;;;;;5.57;2.67;;;16.30;99.90;;;;;;4978084;28;20022;-82
2021/07/09 07:31:10;;;;;;;3.53;2.40;;;16.40;99.90;;;;;;4979563;28;20041;-83
2021/07/09 07:33:37;;;;;;;5.15;2.63;;;16.40;99.90;;;;;;4978263;28;20117;-83
2021/07/09 07:36:03;;;;;;;4.93;2.75;;;16.40;99.90;;;;;;4978565;28;20572;-84
2021/07/09 07:38:29;;;;;;;4.30;2.35;;;16.40;99.90;;;;;;4967142;28;20035;-84
2021/07/09 07:40:55;;;;;;;4.45;2.80;;;16.50;99.90;;;;;;4976124;28;20535;-83
2021/07/09 07:43:20;;;;;;;6.18;3.00;;;16.50;99.90;;;;;;4975758;28;20553;-83
2021/07/09 07:45:46;;;;;;;4.95;2.92;;;16.60;99.90;;;;;;4976177;28;20037;-83
2021/07/09 07:48:12;;;;;;;4.95;2.95;;;16.70;99.90;;;;;;4957736;28;20027;-83
2021/07/09 07:50:38;;;;;;;5.20;2.58;;;16.80;99.90;;;;;;4957936;28;20026;-83
2021/07/09 07:53:03;;;;;;;5.03;2.75;;;16.90;99.90;;;;;;4975351;28;20666;-82
2021/07/09 07:55:29;;;;;;;6.43;3.40;;;17.00;99.90;;;;;;4989849;28;20041;-84
2021/07/09 07:57:55;;;;;;;6.90;3.15;;;16.90;99.90;;;;;;4974655;28;20142;-83
2021/07/09 08:00:41;;;;;;;7.93;3.22;;;17.00;99.90;;;;;;4975254;28;20031;-83
2021/07/09 08:03:07;;;;;;;6.07;2.83;;;17.00;99.90;;;;;;4975015;28;20077;-83
2021/07/09 08:05:32;;;;;;;5.55;2.88;;;17.10;99.90;;;;;;4974669;28;20066;-83
2021/07/09 08:07:58;;;;;;;5.53;2.90;;;17.10;99.90;;;;;;4979421;28;20027;-85
2021/07/09 08:10:25;;;;;;;4.60;2.95;;;17.20;99.90;;;;;;4963013;28;20026;-84
2021/07/09 08:12:51;;;;;;;3.83;2.53;;;17.30;99.90;;;;;;4963813;28;20126;-84
2021/07/09 08:15:17;;;;;;;7.68;2.85;;;17.50;99.90;;;;;;4989232;28;20477;-83
2021/07/09 08:17:43;;;;;;;4.43;2.65;;;17.60;99.90;;;;;;4983469;28;20093;-84
2021/07/09 08:20:09;;;;;;;4.80;2.67;;;17.70;99.90;;;;;;5000641;28;20026;-84
2021/07/09 08:22:36;;;;;;;3.58;2.45;;;17.70;99.90;;;;;;4998259;28;20100;-84
2021/07/09 08:25:04;;;;;;;4.38;2.30;;;17.80;99.90;;;;;;4988786;28;20031;-84
2021/07/09 08:27:30;;;;;;;4.28;2.08;;;17.80;99.90;;;;;;4981436;28;20023;-84
2021/07/09 08:29:55;;;;;;;3.75;2.35;;;17.80;99.90;;;;;;4981467;28;20015;-84
2021/07/09 08:32:21;;;;;;;4.22;2.33;;;17.90;99.90;;;;;;4968706;28;20050;-84
2021/07/09 08:34:53;;;;;;;3.40;1.95;;;18.20;99.90;;;;;;4979485;28;20019;-84
2021/07/09 08:37:19;;;;;;;3.85;2.22;;;18.40;99.90;;;;;;4978569;28;20029;-84
2021/07/09 08:39:45;;;;;;;3.45;1.90;;;18.50;99.90;;;;;;4968519;28;20030;-84
2021/07/09 08:42:11;;;;;;;4.93;2.67;;;18.60;99.90;;;;;;4970646;28;20030;-84
2021/07/09 08:44:38;;;;;;;5.35;1.98;;;18.60;99.90;;;;;;5000599;28;20160;-82
2021/07/09 08:47:05;;;;;;;3.90;1.88;;;18.70;99.90;;;;;;4995806;28;20373;-83
2021/07/09 08:49:31;;;;;;;4.25;2.35;;;18.70;99.90;;;;;;4981782;28;20030;-83
2021/07/09 08:51:57;;;;;;;4.40;2.08;;;18.70;99.90;;;;;;4981460;28;20061;-84
2021/07/09 08:54:23;;;;;;;6.13;2.50;;;18.80;99.90;;;;;;4984627;28;20037;-82
2021/07/09 08:56:51;;;;;;;4.20;1.90;;;18.80;99.90;;;;;;4990934;28;20153;-81
2021/07/09 08:59:20;;;;;;;4.30;1.90;;;18.90;99.90;;;;;;5008473;28;20635;-83
2021/07/09 09:01:58;;;;;;;3.30;1.90;;;19.10;99.90;;;;;;4989894;28;20534;-84
2021/07/09 09:04:29;;;;;;;3.75;1.88;;;19.20;99.90;;;;;;4993710;28;20424;-83
2021/07/09 09:07:08;;;;;;;3.60;1.92;;;19.40;99.90;;;;;;5011315;28;20027;-82
2021/07/09 09:09:39;;;;;;;4.38;2.40;;;19.50;99.90;;;;;;5007613;28;20054;-84
2021/07/09 09:12:16;;;;;;;3.83;2.53;;;19.70;99.90;;;;;;5005864;28;20053;-84
2021/07/09 09:14:44;;;;;;;4.57;2.28;;;20.00;99.90;;;;;;4979224;28;20049;-83
2021/07/09 09:17:45;;;;;;;3.97;2.22;;;20.20;99.90;;;;;;4976707;28;20056;-82
2021/07/09 09:20:18;;;;;;;4.57;1.75;;;20.60;99.90;;;;;;4950470;28;20104;-82
2021/07/09 09:22:50;;;;;;;4.78;1.92;;;20.70;99.90;;;;;;4966571;28;20520;-82
2021/07/09 09:25:17;;;;;;;4.20;2.10;;;20.70;99.90;;;;;;4975379;28;20452;-83
2021/07/09 09:27:44;;;;;;;4.57;2.00;;;20.80;99.90;;;;;;4992595;28;20026;-82
2021/07/09 09:30:11;;;;;;;4.28;2.10;;;20.80;99.90;;;;;;4995613;28;20045;-83
2021/07/09 09:32:48;;;;;;;3.35;1.80;;;21.10;99.90;;;;;;4994520;28;20022;-82
2021/07/09 09:35:37;;;;;;;3.78;2.13;;;21.20;99.90;;;;;;4974815;28;20026;-82
2021/07/09 09:38:05;;;;;;;4.03;2.05;;;21.20;99.90;;;;;;4972261;28;20077;-82
2021/07/09 09:40:33;;;;;;;4.20;1.92;;;21.10;99.90;;;;;;4991776;28;20040;-82
2021/07/09 09:43:15;;;;;;;4.32;2.10;;;20.80;99.90;;;;;;4991319;28;20035;-81
2021/07/09 09:45:42;;;;;;;3.47;2.00;;;20.70;99.90;;;;;;4981294;28;20106;-82
2021/07/09 09:48:11;;;;;;;3.63;2.00;;;20.40;99.90;;;;;;4998029;28;20037;-84
2021/07/09 09:50:48;;;;;;;4.68;2.20;;;20.50;99.90;;;;;;4998729;28;20029;-84
2021/07/09 09:53:14;;;;;;;3.08;1.90;;;20.50;99.90;;;;;;4975425;28;20106;-84
2021/07/09 09:55:41;;;;;;;3.75;1.88;;;20.40;99.90;;;;;;4997304;28;20018;-82
2021/07/09 09:58:14;;;;;;;3.05;1.83;;;20.50;99.90;;;;;;4982289;28;20026;-84
2021/07/09 10:00:44;;;;;;;5.18;2.10;;;20.50;99.90;;;;;;4982129;28;20026;-81
2021/07/09 10:03:09;;;;;;;5.93;2.72;;;20.60;99.90;;;;;;4968161;28;20039;-82
2021/07/09 10:05:40;;;;;;;3.20;2.05;;;20.90;99.90;;;;;;4975505;28;20031;-82
2021/07/09 10:08:14;;;;;;;5.68;2.63;;;20.90;99.90;;;;;;4957644;28;20037;-82
2021/07/09 10:10:40;;;;;;;3.20;1.77;;;21.00;99.90;;;;;;4975467;28;20641;-82
2021/07/09 10:13:08;;;;;;;5.38;2.17;;;21.10;99.90;;;;;;4974741;28;20031;-83
2021/07/09 10:15:41;;;;;;;4.75;2.42;;;21.40;99.90;;;;;;4975284;28;20658;-82
2021/07/09 10:18:11;;;;;;;3.97;2.22;;;21.50;99.90;;;;;;4955764;28;20512;-82
2021/07/09 10:20:37;;;;;;;4.05;2.15;;;21.60;99.90;;;;;;4941766;28;20038;-82
2021/07/09 10:23:03;;;;;;;3.55;2.00;;;21.80;99.90;;;;;;4978442;28;20031;-83
2021/07/09 10:25:29;;;;;;;3.55;1.70;;;21.90;99.90;;;;;;4956928;28;20038;-82
2021/07/09 10:27:56;;;;;;;3.17;2.00;;;21.70;99.90;;;;;;4968087;28;20074;-81
2021/07/09 10:30:21;;;;;;;3.67;1.88;;;21.50;99.90;;;;;;4954988;28;20070;-83
2021/07/09 10:32:49;;;;;;;5.00;2.10;;;21.20;99.90;;;;;;4955156;28;20444;-82
2021/07/09 10:35:41;;;;;;;4.32;2.40;;;21.00;99.90;;;;;;4937158;28;20027;-82
2021/07/09 10:38:10;;;;;;;;;;;20.80;99.90;;;;;;4962934;28;20386;-81
2021/07/09 10:40:35;;;;;;;7.05;3.30;;;20.60;99.90;;;;;;4975257;28;19910;-81
2021/07/09 10:43:01;;;;;;;4.22;2.63;;;20.40;99.90;;;;;;4974369;28;20069;-83
2021/07/09 10:45:28;;;;;;;4.93;2.50;;;20.20;99.90;;;;;;4973436;28;20034;-80
2021/07/09 10:48:13;;;;;;;5.15;2.88;;;20.00;99.90;;;;;;4952705;28;20019;-83
2021/07/09 10:50:49;;;;;;;5.50;2.97;;;19.90;99.90;;;;;;4937154;28;20023;-82
2021/07/09 10:53:15;;;;;;;6.57;3.67;;;19.90;99.90;;;;;;4954532;28;20027;-81
2021/07/09 10:55:51;;;;;;;9.25;4.97;;;19.80;99.90;;;;;;4952532;28;20034;-82
2021/07/09 10:58:52;;;;;;;8.98;4.93;;;20.00;99.90;;;;;;4956648;28;20693;-82
2021/07/09 11:01:26;;;;;;;6.75;4.28;;;20.50;99.90;;;;;;4955979;28;20117;-81
2021/07/09 11:03:56;;;;;;;7.28;4.15;;;21.10;99.90;;;;;;4967279;28;20058;-82
2021/07/09 11:06:31;;;;;;;7.78;4.57;;;21.40;99.90;;;;;;4982037;28;20030;-82
2021/07/09 11:09:02;;;;;;;6.47;4.22;;;22.30;99.90;;;;;;4963949;28;20030;-83
2021/07/09 11:11:32;;;;;;;9.90;4.28;;;22.80;99.90;;;;;;4977410;28;20082;-82
2021/07/09 11:14:01;;;;;;;5.30;3.43;;;22.80;99.90;;;;;;4980133;28;20035;-83
2021/07/09 11:16:35;;;;;;;5.82;3.83;;;22.70;99.90;;;;;;4960799;28;20622;-83
2021/07/09 11:19:03;;;;;;;5.95;3.95;;;22.30;99.90;;;;;;4960251;28;20488;-83
2021/07/09 11:21:34;;;;;;;5.72;3.60;;;22.20;99.90;;;;;;4977045;28;20544;-83
2021/07/09 11:24:01;;;;;;;4.38;2.97;;;22.60;99.90;;;;;;4963856;28;20495;-82
2021/07/09 11:26:28;;;;;;;8.27;3.33;;;23.20;99.90;;;;;;4979205;28;20111;-83
2021/07/09 11:28:54;;;;;;;5.57;3.30;;;23.60;99.90;;;;;;4978439;28;20560;-81
2021/07/09 11:31:29;;;;;;;4.93;3.05;;;24.10;99.90;;;;;;4978562;28;20046;-81
2021/07/09 11:34:02;;;;;;;6.40;3.60;;;24.30;99.90;;;;;;4960313;28;20022;-83
2021/07/09 11:36:28;;;;;;;6.40;3.63;;;23.70;99.90;;;;;;4962591;28;20022;-81
2021/07/09 11:39:08;;;;;;;7.32;3.90;;;23.20;99.90;;;;;;4977993;28;20029;-82
2021/07/09 11:41:49;;;;;;;6.82;4.25;;;22.80;99.90;;;;;;4975747;28;20030;-82
2021/07/09 11:44:16;;;;;;;6.43;4.15;;;22.40;99.90;;;;;;4979091;28;20517;-80
2021/07/09 11:46:41;;;;;;;7.10;3.78;;;22.10;99.90;;;;;;4988100;28;20022;-82
2021/07/09 11:49:07;;;;;;;9.07;4.50;;;22.00;99.90;;;;;;4985667;28;20426;-83
2021/07/09 11:51:33;;;;;;;6.97;3.97;;;21.80;99.90;;;;;;4987201;28;20121;-83
2021/07/09 11:54:06;;;;;;;5.90;3.85;;;21.80;99.90;;;;;;4963340;28;20027;-83
2021/07/09 11:56:40;;;;;;;6.22;3.22;;;22.60;99.90;;;;;;4964271;28;20073;-81
2021/07/09 11:59:16;;;;;;;6.05;3.30;;;23.30;99.90;;;;;;4979115;28;20039;-82
2021/07/09 12:01:59;;;;;;;4.53;3.20;;;23.90;99.90;;;;;;4961281;28;20034;-82
2021/07/09 12:04:33;;;;;;;5.20;3.30;;;24.00;99.90;;;;;;4975710;28;20081;-83
2021/07/09 12:07:27;;;;;;;6.07;3.40;;;24.00;99.90;;;;;;4975183;28;20027;-83
2021/07/09 12:10:08;;;;;;;4.60;3.38;;;23.60;99.90;;;;;;4965881;28;20027;-82
2021/07/09 12:12:44;;;;;;;;;;;23.60;99.90;;;;;;4977801;28;20058;-80
2021/07/09 12:15:19;;;;;;;7.38;4.10;;;23.60;99.90;;;;;;4980380;28;19917;-83
2021/07/09 12:17:46;;;;;;;7.05;3.97;;;23.60;99.90;;;;;;4985092;28;20497;-80
2021/07/09 12:20:13;;;;;;;8.40;4.22;;;23.70;99.90;;;;;;4965535;28;20041;-81
2021/07/09 12:22:51;;;;;;;6.00;3.83;;;23.70;99.90;;;;;;4984960;28;20031;-80
2021/07/09 12:25:18;;;;;;;6.55;4.30;;;23.70;99.90;;;;;;4986604;28;20023;-81
2021/07/09 12:27:45;;;;;;;6.38;4.30;;;23.40;99.90;;;;;;4976770;28;20109;-81
2021/07/09 12:30:17;;;;;;;6.68;4.45;;;22.80;99.90;;;;;;4959823;28;20027;-81
2021/07/09 12:32:44;;;;;;;6.60;4.22;;;22.50;99.90;;;;;;4943929;28;20042;-81
2021/07/09 12:35:10;;;;;;;8.27;4.40;;;22.20;99.90;;;;;;4957043;28;20407;-80
2021/07/09 12:37:36;;;;;;;7.35;4.25;;;22.00;99.90;;;;;;4956598;28;20114;-81
2021/07/09 12:40:17;;;;;;;7.90;4.40;;;22.70;99.90;;;;;;4940056;28;20466;-80
2021/07/09 12:42:44;;;;;;;6.53;3.88;;;23.70;99.90;;;;;;4957823;28;20058;-81
2021/07/09 12:45:11;;;;;;;5.70;3.78;;;23.90;99.90;;;;;;4972748;28;20053;-80
2021/07/09 12:47:48;;;;;;;6.55;4.00;;;23.70;99.90;;;;;;4979211;28;20026;-81
2021/07/09 12:50:22;;;;;;;8.80;3.83;;;23.90;99.90;;;;;;4976827;28;20027;-80
2021/07/09 12:52:49;;;;;;;6.45;3.90;;;24.30;99.90;;;;;;4979056;28;20027;-82